Weather at Baptist Health Lexington Heliport

Public forecast

Using degrees Fahrenheit for public forecast. Weather courtesy of forecast.io.

Closest aviation weather report (METAR) to Baptist Health Lexington Heliport

Closest report is Blue Grass Airport, 4.6 nm (8.5 km) WNW. Retrieved 2021/06/13 10:54 UTC (48 minutes ago):

KLEX 131054Z 14004KT 10SM CLR 19/18 A2991 RMK AO2 SLP118 T01940183

Closest aviation forecast (TAF) to Baptist Health Lexington Heliport

Closest forecast is Blue Grass Airport, 4.6 nm (8.5 km) WNW. Retrieved 2021/06/13 06:22 UTC (5 hours ago):

TAF KLEX 130520Z 1306/1406 17004KT P6SM SCT250 TEMPO 1309/1312 5SM BR FM131300 28006KT P6SM SCT200 FM131800 30007KT P6SM VCTS SCT050CB TEMPO 1318/1321 2SM TSRA OVC040CB FM132300 35005KT P6SM SCT250